モスクワ/シェレメーチエヴォ の空港の天気 - METARとTAF

シェレメーチエヴォ国際空港(モスクワ) ( UUEE / SVO ) - ロシア モスクワ
飛行場実況気象(Metar)
観測時間04/25 19:00 MSK (04/25 16:00 UTC)
風向・風速南 3m/s
視程10km以上
天気現象
なし
気温9℃
湿度37%
気圧1014hPa
METARUUEE 251600Z 19003MPS CAVOK 09/M05 Q1014 R24R/CLRD62 R24L/CLRD62 NOSIG
過去の天気等 Google飛行場航空写真 Wunderground天気予報

過去48時間のMETAR

飛行場予報(TAF)
発表時間: 4/25 16:59 MSK (4/25 13:59 UTC)
予報対象時間: 25日18時 MSK ~ 26日18時 MSK
風向・風速南西 7m/s
視程10km以上
全天の8割程度の雲 雲底高度 610m
25日18時 MSK ~ 25日19時 MSK に一時的に
全天の8割程度の積乱雲 雲底高度 460m
25日19時 MSK ~ 25日21時 MSK に徐々に
風向・風速南 7m/s
26日3時 MSK ~ 26日8時 MSK に一時的に
風向・風速南 12m/s
26日8時 MSK ~ 26日15時 MSK に一時的に
風向・風速南 14m/s
天気現象弱いしゅう雨
全天の8割程度の積乱雲 雲底高度 370m
26日15時 MSK ~ 26日18時 MSK に一時的に
風向・風速南西 16m/s
視程2,500m
天気現象弱いしゅう雨
全天の8割程度の積乱雲 雲底高度 370m
TAF UUEE 251359Z 2515/2615 23007MPS 9999 BKN020 TX12/2612Z TN04/2603Z
TEMPO 2515/2516 BKN015CB
BECMG 2516/2518 17007MPS
TEMPO 2600/2605 18012MPS
TEMPO 2605/2612 18014MPS -SHRA BKN012CB
TEMPO 2612/2615 23016MPS 2500 -SHRA BKN012CB